createdAt,value
2019-02-09T00:00:53.904Z,5.13
2019-02-09T00:03:21.655Z,4.73
2019-02-09T00:05:49.421Z,4.87
2019-02-09T00:08:17.206Z,5.20
2019-02-09T00:10:45.022Z,5.67
2019-02-09T00:13:12.783Z,5.10
2019-02-09T00:15:40.786Z,4.80
2019-02-09T00:18:08.554Z,5.43
2019-02-09T00:20:36.315Z,5.10
2019-02-09T00:23:04.854Z,4.80
2019-02-09T00:25:32.667Z,5.20
2019-02-09T00:28:00.468Z,4.93
2019-02-09T00:30:28.208Z,4.67
2019-02-09T00:32:56.018Z,4.27
2019-02-09T00:35:23.791Z,4.07
2019-02-09T00:37:51.571Z,4.90
2019-02-09T00:40:19.536Z,3.93
2019-02-09T00:42:47.345Z,3.97
2019-02-09T00:45:15.679Z,3.80
2019-02-09T00:47:43.464Z,3.30
2019-02-09T00:50:12.338Z,3.53
2019-02-09T00:52:40.120Z,3.70
2019-02-09T00:55:08.996Z,3.17
2019-02-09T00:57:36.758Z,3.00
2019-02-09T01:00:15.435Z,3.50
2019-02-09T01:02:43.194Z,2.80
2019-02-09T01:05:12.552Z,2.47
2019-02-09T01:07:40.297Z,2.90
2019-02-09T01:10:10.798Z,2.67
2019-02-09T01:12:38.573Z,2.77
2019-02-09T01:15:09.653Z,2.50
2019-02-09T01:17:37.436Z,2.70
2019-02-09T01:20:08.388Z,2.70
2019-02-09T01:22:36.188Z,2.83
2019-02-09T01:25:05.237Z,3.10
2019-02-09T01:27:33.066Z,2.60
2019-02-09T01:30:02.510Z,2.67
2019-02-09T01:32:30.476Z,2.77
2019-02-09T01:34:58.202Z,2.80
2019-02-09T01:37:25.993Z,2.13
2019-02-09T01:39:53.757Z,2.67
2019-02-09T01:42:21.649Z,2.67
2019-02-09T01:44:49.409Z,2.83
2019-02-09T01:47:17.205Z,3.10
2019-02-09T01:49:44.941Z,3.23
2019-02-09T01:52:12.735Z,3.27
2019-02-09T01:54:40.534Z,3.30
2019-02-09T01:57:08.280Z,3.67
2019-02-09T01:59:36.027Z,3.93
2019-02-09T02:02:04.248Z,4.10
2019-02-09T02:04:32.157Z,3.70
2019-02-09T02:06:59.985Z,3.63
2019-02-09T02:09:27.769Z,3.60
2019-02-09T02:11:55.521Z,3.90
2019-02-09T02:14:23.300Z,3.00
2019-02-09T02:16:51.053Z,3.70
2019-02-09T02:19:18.848Z,3.27
2019-02-09T02:21:46.605Z,3.90
2019-02-09T02:24:14.360Z,3.40
2019-02-09T02:26:42.133Z,3.13
2019-02-09T02:29:09.898Z,3.30
2019-02-09T02:31:37.660Z,3.73
2019-02-09T02:34:05.398Z,3.30
2019-02-09T02:36:33.164Z,3.50
2019-02-09T02:39:00.887Z,3.97
2019-02-09T02:41:28.694Z,3.53
2019-02-09T02:43:56.478Z,3.57
2019-02-09T02:46:24.234Z,3.90
2019-02-09T02:48:52.008Z,3.50
2019-02-09T02:51:20.023Z,4.17
2019-02-09T02:53:47.766Z,3.80
2019-02-09T02:56:15.512Z,3.63
2019-02-09T02:58:43.268Z,3.80
2019-02-09T03:01:11.036Z,3.87
2019-02-09T03:03:38.775Z,3.80
2019-02-09T03:06:06.810Z,3.47
2019-02-09T03:08:34.546Z,3.47
2019-02-09T03:11:02.292Z,3.80
2019-02-09T03:13:30.064Z,3.60
2019-02-09T03:15:57.817Z,3.33
2019-02-09T03:18:25.574Z,3.30
2019-02-09T03:20:53.344Z,3.50
2019-02-09T03:23:21.194Z,3.23
2019-02-09T03:25:49.236Z,3.27
2019-02-09T03:28:16.967Z,3.50
2019-02-09T03:30:48.308Z,3.03
2019-02-09T03:33:14.360Z,3.20
2019-02-09T03:35:42.095Z,3.63
2019-02-09T03:38:09.854Z,3.00
2019-02-09T03:40:37.603Z,2.93
2019-02-09T03:43:05.341Z,3.03
2019-02-09T03:45:33.310Z,2.67
2019-02-09T03:48:01.594Z,3.07
2019-02-09T03:50:30.562Z,3.10
2019-02-09T03:52:58.904Z,3.10
2019-02-09T03:55:26.847Z,3.03
2019-02-09T03:57:54.717Z,3.00
2019-02-09T04:00:25.056Z,3.00
2019-02-09T04:02:53.107Z,3.10
2019-02-09T04:05:21.041Z,3.13
2019-02-09T04:07:48.921Z,3.40
2019-02-09T04:10:19.141Z,3.40
2019-02-09T04:12:46.901Z,4.00
2019-02-09T04:15:17.609Z,3.97
2019-02-09T04:17:45.501Z,3.63
2019-02-09T04:20:14.731Z,4.43
2019-02-09T04:22:42.644Z,4.83
2019-02-09T04:25:12.433Z,4.67
2019-02-09T04:27:40.221Z,4.13
2019-02-09T04:30:22.758Z,4.37
2019-02-09T04:32:50.543Z,4.23
2019-02-09T04:35:18.290Z,4.10
2019-02-09T04:37:46.031Z,4.20
2019-02-09T04:40:17.464Z,3.87
2019-02-09T04:42:45.229Z,4.30
2019-02-09T04:45:13.942Z,3.67
2019-02-09T04:47:41.716Z,3.50
2019-02-09T04:50:09.911Z,3.00
2019-02-09T04:52:37.676Z,2.83
2019-02-09T04:55:08.290Z,3.13
2019-02-09T04:57:36.054Z,2.60
2019-02-09T05:00:05.443Z,2.63
2019-02-09T05:02:33.178Z,2.40
2019-02-09T05:05:00.969Z,2.20
2019-02-09T05:07:28.763Z,2.00
2019-02-09T05:09:56.548Z,1.87
2019-02-09T05:12:24.317Z,2.03
2019-02-09T05:14:52.083Z,1.90
2019-02-09T05:17:20.024Z,2.10
2019-02-09T05:19:50.338Z,1.93
2019-02-09T05:22:18.092Z,2.23
2019-02-09T05:24:45.876Z,2.00
2019-02-09T05:27:13.785Z,1.77
2019-02-09T05:29:41.617Z,2.17
2019-02-09T05:32:09.407Z,2.27
2019-02-09T05:34:37.170Z,2.20
2019-02-09T05:37:04.929Z,1.93
2019-02-09T05:39:33.834Z,1.90
2019-02-09T05:42:01.800Z,2.00
2019-02-09T05:44:29.815Z,2.17
2019-02-09T05:46:57.625Z,2.00
2019-02-09T05:49:25.403Z,2.10
2019-02-09T05:51:53.143Z,1.73
2019-02-09T05:54:20.888Z,2.27
2019-02-09T05:56:48.681Z,1.70
2019-02-09T05:59:16.432Z,2.10
2019-02-09T06:01:44.207Z,1.60
2019-02-09T06:04:11.965Z,1.90
2019-02-09T06:06:39.730Z,2.20
2019-02-09T06:09:07.757Z,2.00
2019-02-09T06:11:35.678Z,1.97
2019-02-09T06:14:04.115Z,1.60
2019-02-09T06:16:31.880Z,1.80
2019-02-09T06:18:59.992Z,1.60
2019-02-09T06:21:30.115Z,1.90
2019-02-09T06:23:57.872Z,1.90
2019-02-09T06:26:25.639Z,1.80
2019-02-09T06:28:53.471Z,2.03
2019-02-09T06:31:21.269Z,1.63
2019-02-09T06:33:49.124Z,1.80
2019-02-09T06:36:16.870Z,1.90
2019-02-09T06:38:44.636Z,1.83
2019-02-09T06:41:12.395Z,2.27
2019-02-09T06:43:40.184Z,1.80
2019-02-09T06:46:07.959Z,1.80
2019-02-09T06:48:35.834Z,1.90
2019-02-09T06:51:04.374Z,1.87
2019-02-09T06:53:32.166Z,1.80
2019-02-09T06:56:00.208Z,1.77
2019-02-09T06:58:27.998Z,2.00
2019-02-09T07:00:55.762Z,1.50
2019-02-09T07:03:23.549Z,1.90
2019-02-09T07:05:51.292Z,1.60
2019-02-09T07:08:19.066Z,1.73
2019-02-09T07:10:46.865Z,1.80
2019-02-09T07:13:14.620Z,1.80
2019-02-09T07:15:42.408Z,1.90
2019-02-09T07:18:10.203Z,1.80
2019-02-09T07:20:37.993Z,2.10
2019-02-09T07:23:06.112Z,2.00
2019-02-09T07:25:33.924Z,1.70
2019-02-09T07:28:01.798Z,1.70
2019-02-09T07:30:29.688Z,1.83
2019-02-09T07:32:58.220Z,1.50
2019-02-09T07:35:26.277Z,1.47
2019-02-09T07:37:54.135Z,1.90
2019-02-09T07:40:22.605Z,1.43
2019-02-09T07:42:50.431Z,1.50
2019-02-09T07:45:21.161Z,2.73
2019-02-09T07:47:48.946Z,1.67
2019-02-09T07:50:17.683Z,1.43
2019-02-09T07:52:45.476Z,1.60
2019-02-09T07:55:14.005Z,1.60
2019-02-09T07:57:41.843Z,1.60
2019-02-09T08:00:17.051Z,1.50
2019-02-09T08:02:44.941Z,1.30
2019-02-09T08:05:13.143Z,1.40
2019-02-09T08:07:40.947Z,1.33
2019-02-09T08:10:13.225Z,1.50
2019-02-09T08:12:41.183Z,1.90
2019-02-09T08:15:14.429Z,1.37
2019-02-09T08:17:42.255Z,1.40
2019-02-09T08:20:12.201Z,1.52
2019-02-09T08:22:40.020Z,1.30
2019-02-09T08:25:11.135Z,1.40
2019-02-09T08:27:38.939Z,1.57
2019-02-09T08:30:09.403Z,1.20
2019-02-09T08:32:37.226Z,1.33
2019-02-09T08:35:05.490Z,1.20
2019-02-09T08:37:33.363Z,1.13
2019-02-09T08:40:01.171Z,1.03
2019-02-09T08:42:28.998Z,1.00
2019-02-09T08:44:59.133Z,1.20
2019-02-09T08:47:26.953Z,1.10
2019-02-09T08:49:54.818Z,1.00
2019-02-09T08:52:22.632Z,1.43
2019-02-09T08:54:51.576Z,1.20
2019-02-09T08:57:19.366Z,1.23
2019-02-09T08:59:48.332Z,1.30
2019-02-09T09:02:20.663Z,1.10
2019-02-09T09:04:50.296Z,1.10
2019-02-09T09:07:18.304Z,1.00
2019-02-09T09:09:46.134Z,1.30
2019-02-09T09:12:14.014Z,1.20
2019-02-09T09:14:41.901Z,1.10
2019-02-09T09:17:09.766Z,0.90
2019-02-09T09:19:37.671Z,1.03
2019-02-09T09:22:05.504Z,0.93
2019-02-09T09:24:33.371Z,0.90
2019-02-09T09:27:01.304Z,0.90
2019-02-09T09:29:29.291Z,0.90
2019-02-09T09:31:57.166Z,1.17
2019-02-09T09:34:25.147Z,1.33
2019-02-09T09:36:53.103Z,1.13
2019-02-09T09:39:20.956Z,1.17
2019-02-09T09:41:48.730Z,1.03
2019-02-09T09:44:16.539Z,0.90
2019-02-09T09:46:44.453Z,0.90
2019-02-09T09:49:13.945Z,0.90
2019-02-09T09:51:41.933Z,0.93
2019-02-09T09:54:09.817Z,1.10
2019-02-09T09:56:37.797Z,0.90
2019-02-09T09:59:05.717Z,1.07
2019-02-09T10:01:33.550Z,0.90
2019-02-09T10:04:01.407Z,1.00
2019-02-09T10:06:29.399Z,1.23
2019-02-09T10:08:57.826Z,0.97
2019-02-09T10:11:25.646Z,0.80
2019-02-09T10:13:53.531Z,1.00
2019-02-09T10:16:21.275Z,0.93
2019-02-09T10:18:49.186Z,0.80
2019-02-09T10:21:17.093Z,0.80
2019-02-09T10:23:45.431Z,1.00
2019-02-09T10:26:13.321Z,0.70
2019-02-09T10:28:41.376Z,0.80
2019-02-09T10:31:09.213Z,1.00
2019-02-09T10:33:37.017Z,0.60
2019-02-09T10:36:04.830Z,0.90
2019-02-09T10:38:32.698Z,0.87
2019-02-09T10:41:00.388Z,1.00
2019-02-09T10:43:28.172Z,1.00
2019-02-09T10:45:55.945Z,0.80
2019-02-09T10:48:23.845Z,0.80
2019-02-09T10:50:51.663Z,1.17
2019-02-09T10:53:19.491Z,0.73
2019-02-09T10:55:47.228Z,0.63
2019-02-09T10:58:15.052Z,1.00
2019-02-09T11:00:57.046Z,0.70
2019-02-09T11:03:24.828Z,0.80
2019-02-09T11:05:52.656Z,0.80
2019-02-09T11:08:20.490Z,0.83
2019-02-09T11:10:48.363Z,1.00
2019-02-09T11:13:16.142Z,1.00
2019-02-09T11:15:44.030Z,0.93
2019-02-09T11:18:11.904Z,1.10
2019-02-09T11:20:39.676Z,0.83
2019-02-09T11:23:07.419Z,0.80
2019-02-09T11:25:35.325Z,0.60
2019-02-09T11:28:03.204Z,0.70
2019-02-09T11:30:31.250Z,1.00
2019-02-09T11:33:02.013Z,0.90
2019-02-09T11:35:29.775Z,0.90
2019-02-09T11:37:57.621Z,0.87
2019-02-09T11:40:25.431Z,0.67
2019-02-09T11:42:53.570Z,1.33
2019-02-09T11:45:24.493Z,1.23
2019-02-09T11:47:52.307Z,0.90
2019-02-09T11:50:20.820Z,0.90
2019-02-09T11:52:48.677Z,0.70
2019-02-09T11:55:17.165Z,0.80
2019-02-09T11:57:45.686Z,0.70
2019-02-09T12:00:22.535Z,0.73
2019-02-09T12:02:50.492Z,0.70
2019-02-09T12:05:18.357Z,0.83
2019-02-09T12:07:46.113Z,1.50
2019-02-09T12:10:14.437Z,1.00
2019-02-09T12:12:42.212Z,0.80
2019-02-09T12:15:15.095Z,1.00
2019-02-09T12:17:43.374Z,1.20
2019-02-09T12:20:13.570Z,0.90
2019-02-09T12:22:41.306Z,0.97
2019-02-09T12:25:14.507Z,1.00
2019-02-09T12:27:42.270Z,0.90
2019-02-09T12:30:17.012Z,0.70
2019-02-09T12:32:44.799Z,1.37
2019-02-09T12:35:13.368Z,1.00
2019-02-09T12:37:41.124Z,1.10
2019-02-09T12:40:15.818Z,0.77
2019-02-09T12:42:43.598Z,0.90
2019-02-09T12:45:13.496Z,0.90
2019-02-09T12:47:41.230Z,0.97
2019-02-09T12:50:10.911Z,0.80
2019-02-09T12:52:38.688Z,0.80
2019-02-09T12:55:06.701Z,0.80
2019-02-09T12:57:34.465Z,1.07
2019-02-09T13:00:03.345Z,0.80
2019-02-09T13:02:31.150Z,0.60
2019-02-09T13:04:58.956Z,0.80
2019-02-09T13:07:28.172Z,0.80
2019-02-09T13:09:55.997Z,1.00
2019-02-09T13:12:23.796Z,1.13
2019-02-09T13:14:51.584Z,1.03
2019-02-09T13:17:19.374Z,0.80
2019-02-09T13:19:47.187Z,0.83
2019-02-09T13:22:14.932Z,1.00
2019-02-09T13:24:42.734Z,1.00
2019-02-09T13:27:10.518Z,0.80
2019-02-09T13:29:38.339Z,0.97
2019-02-09T13:32:06.189Z,0.73
2019-02-09T13:34:34.001Z,1.37
2019-02-09T13:37:01.805Z,0.97
2019-02-09T13:39:29.601Z,1.00
2019-02-09T13:41:57.391Z,0.87
2019-02-09T13:44:25.477Z,1.00
2019-02-09T13:46:53.337Z,1.00
2019-02-09T13:49:21.171Z,0.83
2019-02-09T13:51:48.953Z,0.83
2019-02-09T13:54:16.733Z,1.00
2019-02-09T13:56:44.529Z,0.70
2019-02-09T13:59:12.369Z,1.10
2019-02-09T14:01:40.119Z,1.00
2019-02-09T14:04:07.891Z,1.10
2019-02-09T14:06:35.667Z,1.00
2019-02-09T14:09:06.678Z,1.07
2019-02-09T14:11:34.464Z,1.00
2019-02-09T14:14:02.339Z,1.03
2019-02-09T14:16:30.125Z,0.73
2019-02-09T14:18:57.945Z,0.93
2019-02-09T14:21:26.547Z,0.77
2019-02-09T14:23:54.367Z,1.00
2019-02-09T14:26:22.129Z,1.30
2019-02-09T14:28:49.926Z,0.90
2019-02-09T14:31:17.706Z,0.90
2019-02-09T14:33:45.448Z,1.13
2019-02-09T14:36:13.263Z,1.30
2019-02-09T14:38:41.053Z,1.13
2019-02-09T14:41:08.961Z,0.90
2019-02-09T14:43:36.795Z,1.10
2019-02-09T14:46:04.712Z,1.30
2019-02-09T14:48:32.522Z,1.07
2019-02-09T14:51:00.424Z,1.20
2019-02-09T14:53:30.407Z,1.03
2019-02-09T14:55:58.404Z,1.10
2019-02-09T14:58:26.343Z,1.13
2019-02-09T15:00:54.437Z,1.57
2019-02-09T15:03:27.220Z,1.33
2019-02-09T15:05:52.322Z,1.07
2019-02-09T15:08:20.155Z,1.17
2019-02-09T15:10:48.068Z,1.10
2019-02-09T15:13:16.715Z,1.40
2019-02-09T15:16:14.767Z,1.30
2019-02-09T15:18:42.552Z,1.40
2019-02-09T15:21:10.561Z,1.20
2019-02-09T15:23:39.217Z,1.20
2019-02-09T15:26:07.433Z,1.03
2019-02-09T15:28:35.238Z,1.10
2019-02-09T15:31:05.025Z,1.20
2019-02-09T15:33:33.000Z,1.43
2019-02-09T15:36:00.809Z,1.20
2019-02-09T15:38:29.957Z,1.33
2019-02-09T15:40:57.743Z,1.63
2019-02-09T15:43:25.557Z,1.10
2019-02-09T15:45:53.331Z,1.00
2019-02-09T15:48:22.388Z,1.10
2019-02-09T15:50:50.759Z,1.40
2019-02-09T15:53:18.787Z,1.30
2019-02-09T15:55:46.609Z,1.30
2019-02-09T15:58:14.377Z,1.20
2019-02-09T16:00:42.163Z,1.13
2019-02-09T16:03:09.922Z,1.63
2019-02-09T16:05:37.761Z,1.63
2019-02-09T16:08:06.786Z,1.10
2019-02-09T16:10:34.566Z,1.60
2019-02-09T16:13:02.399Z,1.37
2019-02-09T16:15:30.337Z,1.43
2019-02-09T16:17:58.233Z,1.40
2019-02-09T16:20:26.149Z,1.50
2019-02-09T16:22:54.252Z,1.30
2019-02-09T16:25:22.485Z,1.50
2019-02-09T16:27:50.367Z,1.50
2019-02-09T16:30:20.753Z,1.80
2019-02-09T16:32:48.657Z,2.60
2019-02-09T16:35:18.033Z,3.03
2019-02-09T16:37:46.022Z,3.50
2019-02-09T16:40:17.018Z,2.80
2019-02-09T16:42:44.975Z,2.97
2019-02-09T16:45:19.763Z,2.43
2019-02-09T16:47:47.703Z,2.23
2019-02-09T16:50:16.067Z,2.20
2019-02-09T16:52:43.892Z,2.00
2019-02-09T16:55:13.100Z,1.67
2019-02-09T16:57:40.913Z,2.00
2019-02-09T17:00:13.810Z,2.10
2019-02-09T17:02:41.605Z,2.10
2019-02-09T17:05:10.178Z,1.90
2019-02-09T17:07:38.371Z,1.80
2019-02-09T17:10:06.948Z,2.17
2019-02-09T17:12:35.880Z,2.13
2019-02-09T17:15:05.587Z,2.00
2019-02-09T17:17:33.364Z,2.00
2019-02-09T17:20:02.448Z,1.73
2019-02-09T17:22:30.187Z,1.93
2019-02-09T17:24:57.965Z,2.33
2019-02-09T17:27:26.060Z,2.00
2019-02-09T17:29:53.826Z,2.40
2019-02-09T17:32:21.591Z,1.80
2019-02-09T17:34:49.426Z,2.00
2019-02-09T17:37:17.247Z,2.80
2019-02-09T17:39:45.122Z,1.90
2019-02-09T17:42:13.082Z,1.77
2019-02-09T17:44:40.953Z,1.90
2019-02-09T17:47:08.813Z,1.73
2019-02-09T17:49:36.618Z,2.10
2019-02-09T17:52:04.522Z,1.90
2019-02-09T17:54:32.331Z,1.93
2019-02-09T17:57:00.109Z,2.27
2019-02-09T17:59:28.111Z,1.90
2019-02-09T18:01:55.882Z,1.97
2019-02-09T18:04:23.677Z,1.90
2019-02-09T18:06:51.459Z,1.60
2019-02-09T18:09:19.233Z,2.00
2019-02-09T18:11:47.106Z,2.37
2019-02-09T18:14:14.981Z,2.47
2019-02-09T18:16:42.814Z,2.40
2019-02-09T18:19:10.582Z,3.20
2019-02-09T18:21:38.397Z,2.10
2019-02-09T18:24:06.189Z,2.57
2019-02-09T18:26:33.949Z,2.10
2019-02-09T18:29:01.786Z,2.13
2019-02-09T18:31:29.688Z,2.53
2019-02-09T18:33:57.529Z,2.30
2019-02-09T18:36:25.351Z,2.30
2019-02-09T18:38:53.101Z,2.30
2019-02-09T18:41:20.903Z,2.50
2019-02-09T18:43:48.871Z,2.17
2019-02-09T18:46:16.649Z,2.50
2019-02-09T18:48:44.583Z,2.10
2019-02-09T18:51:12.445Z,2.20
2019-02-09T18:53:40.237Z,2.30
2019-02-09T18:56:08.045Z,2.20
2019-02-09T18:58:35.853Z,2.07
2019-02-09T19:01:04.524Z,2.10
2019-02-09T19:03:32.396Z,2.53
2019-02-09T19:06:00.152Z,2.57
2019-02-09T19:08:27.935Z,2.10
2019-02-09T19:10:55.798Z,2.47
2019-02-09T19:13:23.630Z,2.10
2019-02-09T19:15:51.512Z,2.20
2019-02-09T19:18:19.283Z,1.80
2019-02-09T19:20:51.854Z,1.97
2019-02-09T19:23:19.647Z,2.27
2019-02-09T19:25:50.510Z,2.20
2019-02-09T19:28:18.314Z,1.90
2019-02-09T19:30:46.232Z,2.57
2019-02-09T19:33:13.962Z,2.30
2019-02-09T19:35:41.751Z,2.20
2019-02-09T19:38:09.543Z,2.10
2019-02-09T19:40:37.306Z,1.73
2019-02-09T19:43:05.438Z,2.03
2019-02-09T19:45:33.436Z,1.97
2019-02-09T19:48:01.294Z,2.03
2019-02-09T19:50:29.209Z,1.70
2019-02-09T19:52:57.150Z,1.73
2019-02-09T19:55:27.049Z,2.10
2019-02-09T19:57:54.947Z,2.10
2019-02-09T20:00:28.633Z,1.73
2019-02-09T20:02:56.513Z,1.80
2019-02-09T20:05:24.465Z,1.90
2019-02-09T20:07:55.475Z,1.80
2019-02-09T20:10:27.533Z,2.50
2019-02-09T20:12:58.134Z,1.43
2019-02-09T20:15:26.019Z,1.60
2019-02-09T20:17:53.892Z,2.00
2019-02-09T20:20:21.853Z,1.80
2019-02-09T20:22:49.641Z,2.00
2019-02-09T20:25:19.535Z,1.70
2019-02-09T20:27:47.514Z,1.93
2019-02-09T20:30:21.403Z,2.07
2019-02-09T20:32:52.779Z,1.77
2019-02-09T20:35:27.843Z,1.47
2019-02-09T20:37:54.144Z,1.97
2019-02-09T20:40:28.300Z,1.50
2019-02-09T20:43:02.786Z,1.90
2019-02-09T20:45:26.952Z,2.20
2019-02-09T20:47:54.830Z,2.07
2019-02-09T20:50:22.908Z,2.57
2019-02-09T20:52:50.739Z,2.07
2019-02-09T20:55:19.839Z,2.00
2019-02-09T20:57:47.728Z,2.50
2019-02-09T21:00:18.533Z,2.27
2019-02-09T21:02:46.672Z,2.17
2019-02-09T21:05:15.148Z,1.90
2019-02-09T21:07:44.727Z,2.20
2019-02-09T21:10:18.668Z,2.40
2019-02-09T21:12:46.518Z,2.40
2019-02-09T21:15:15.055Z,1.97
2019-02-09T21:17:42.853Z,2.47
2019-02-09T21:20:11.227Z,2.10
2019-02-09T21:22:39.422Z,2.00
2019-02-09T21:25:11.832Z,2.20
2019-02-09T21:27:39.712Z,2.10
2019-02-09T21:30:09.001Z,2.57
2019-02-09T21:32:40.362Z,2.77
2019-02-09T21:35:07.836Z,2.10
2019-02-09T21:37:35.868Z,2.30
2019-02-09T21:40:05.738Z,2.27
2019-02-09T21:42:33.546Z,1.40
2019-02-09T21:45:01.306Z,2.10
2019-02-09T21:47:29.074Z,2.17
2019-02-09T21:49:56.925Z,1.80
2019-02-09T21:52:24.741Z,1.87
2019-02-09T21:54:52.544Z,1.80
2019-02-09T21:57:20.347Z,1.90
2019-02-09T21:59:48.137Z,2.17
2019-02-09T22:02:15.943Z,2.07
2019-02-09T22:04:43.723Z,1.80
2019-02-09T22:07:11.542Z,2.17
2019-02-09T22:09:39.330Z,2.03
2019-02-09T22:12:07.195Z,2.10
2019-02-09T22:14:35.133Z,2.23
2019-02-09T22:17:03.067Z,1.63
2019-02-09T22:19:30.842Z,1.83
2019-02-09T22:21:58.873Z,2.20
2019-02-09T22:24:26.783Z,2.03
2019-02-09T22:26:54.625Z,2.30
2019-02-09T22:29:22.510Z,1.93
2019-02-09T22:31:50.449Z,1.87
2019-02-09T22:34:18.298Z,1.90
2019-02-09T22:36:46.124Z,2.80
2019-02-09T22:39:13.962Z,2.20
2019-02-09T22:41:48.803Z,1.60
2019-02-09T22:44:11.456Z,1.97
2019-02-09T22:46:39.259Z,1.73
2019-02-09T22:49:07.074Z,2.10
2019-02-09T22:51:34.863Z,1.90
2019-02-09T22:54:02.824Z,1.53
2019-02-09T22:56:30.573Z,1.87
2019-02-09T22:58:58.319Z,1.60
2019-02-09T23:01:42.448Z,2.00
2019-02-09T23:05:04.304Z,1.80
2019-02-09T23:07:33.622Z,1.60
2019-02-09T23:10:10.063Z,1.73
2019-02-09T23:12:37.842Z,2.57
2019-02-09T23:15:06.174Z,1.87
2019-02-09T23:17:33.912Z,1.93
2019-02-09T23:20:01.701Z,2.27
2019-02-09T23:22:29.462Z,1.97
2019-02-09T23:24:57.394Z,1.70
2019-02-09T23:27:25.139Z,1.70
2019-02-09T23:29:53.046Z,1.83
2019-02-09T23:32:20.822Z,1.87
2019-02-09T23:34:48.602Z,2.10
2019-02-09T23:37:16.394Z,2.27
2019-02-09T23:39:44.173Z,1.83
2019-02-09T23:42:11.928Z,1.80
2019-02-09T23:44:39.865Z,2.00
2019-02-09T23:47:07.792Z,1.80
2019-02-09T23:49:35.663Z,1.50
2019-02-09T23:52:03.454Z,1.90
2019-02-09T23:54:31.282Z,1.83
2019-02-09T23:56:58.997Z,2.30
2019-02-09T23:59:26.807Z,2.07
